sensor_id;sensor_type;location;lat;lon;timestamp;P1;durP1;ratioP1;P2;durP2;ratioP2
12218;SDS011;6172;42.646;23.344;2024-03-23T00:56:23;12.53;;;5.97;;
12218;SDS011;6172;42.646;23.344;2024-03-23T00:58:50;9.67;;;5.20;;
12218;SDS011;6172;42.646;23.344;2024-03-23T01:01:16;9.00;;;5.23;;
12218;SDS011;6172;42.646;23.344;2024-03-23T01:03:43;14.73;;;5.50;;
12218;SDS011;6172;42.646;23.344;2024-03-23T01:06:10;11.13;;;5.93;;
12218;SDS011;6172;42.646;23.344;2024-03-23T01:08:37;14.20;;;5.50;;
12218;SDS011;6172;42.646;23.344;2024-03-23T01:11:04;15.73;;;6.07;;
12218;SDS011;6172;42.646;23.344;2024-03-23T01:13:31;11.70;;;6.33;;
12218;SDS011;6172;42.646;23.344;2024-03-23T01:15:58;13.20;;;6.10;;
12218;SDS011;6172;42.646;23.344;2024-03-23T01:18:25;11.70;;;5.93;;
12218;SDS011;6172;42.646;23.344;2024-03-23T01:20:51;9.67;;;5.63;;
12218;SDS011;6172;42.646;23.344;2024-03-23T01:23:20;10.33;;;6.23;;
12218;SDS011;6172;42.646;23.344;2024-03-23T01:25:51;11.10;;;6.63;;
12218;SDS011;6172;42.646;23.344;2024-03-23T01:28:18;9.30;;;5.97;;
12218;SDS011;6172;42.646;23.344;2024-03-23T01:30:44;14.80;;;6.00;;
12218;SDS011;6172;42.646;23.344;2024-03-23T01:33:11;11.73;;;6.07;;
12218;SDS011;6172;42.646;23.344;2024-03-23T01:35:37;10.17;;;5.93;;
12218;SDS011;6172;42.646;23.344;2024-03-23T01:38:04;9.80;;;5.70;;
12218;SDS011;6172;42.646;23.344;2024-03-23T01:40:32;17.30;;;6.13;;
12218;SDS011;6172;42.646;23.344;2024-03-23T01:43:03;11.00;;;6.47;;
12218;SDS011;6172;42.646;23.344;2024-03-23T01:45:30;11.90;;;6.17;;
12218;SDS011;6172;42.646;23.344;2024-03-23T01:47:57;11.73;;;6.70;;
12218;SDS011;6172;42.646;23.344;2024-03-23T01:50:24;18.07;;;6.33;;
12218;SDS011;6172;42.646;23.344;2024-03-23T01:52:52;19.00;;;6.20;;
12218;SDS011;6172;42.646;23.344;2024-03-23T01:55:19;12.03;;;6.10;;
12218;SDS011;6172;42.646;23.344;2024-03-23T01:57:48;11.03;;;6.10;;
12218;SDS011;6172;42.646;23.344;2024-03-23T02:00:14;12.13;;;6.13;;
12218;SDS011;6172;42.646;23.344;2024-03-23T02:02:42;15.37;;;5.83;;
12218;SDS011;6172;42.646;23.344;2024-03-23T02:05:09;15.30;;;6.10;;
12218;SDS011;6172;42.646;23.344;2024-03-23T02:07:37;10.33;;;5.40;;
12218;SDS011;6172;42.646;23.344;2024-03-23T02:10:05;11.90;;;5.43;;
12218;SDS011;6172;42.646;23.344;2024-03-23T02:12:34;5.47;;;3.97;;
12218;SDS011;6172;42.646;23.344;2024-03-23T02:15:02;7.40;;;4.13;;
12218;SDS011;6172;42.646;23.344;2024-03-23T02:17:30;13.17;;;4.50;;
12218;SDS011;6172;42.646;23.344;2024-03-23T02:19:57;6.13;;;3.83;;
12218;SDS011;6172;42.646;23.344;2024-03-23T02:22:24;8.60;;;4.13;;
12218;SDS011;6172;42.646;23.344;2024-03-23T02:24:52;4.70;;;3.47;;
12218;SDS011;6172;42.646;23.344;2024-03-23T02:27:20;6.80;;;3.97;;
12218;SDS011;6172;42.646;23.344;2024-03-23T02:29:46;8.57;;;4.47;;
12218;SDS011;6172;42.646;23.344;2024-03-23T02:32:13;6.30;;;4.50;;
12218;SDS011;6172;42.646;23.344;2024-03-23T02:34:39;8.70;;;4.63;;
12218;SDS011;6172;42.646;23.344;2024-03-23T02:37:10;10.87;;;4.70;;
12218;SDS011;6172;42.646;23.344;2024-03-23T02:39:36;8.80;;;4.73;;
12218;SDS011;6172;42.646;23.344;2024-03-23T02:42:05;7.90;;;4.40;;
12218;SDS011;6172;42.646;23.344;2024-03-23T02:44:31;11.63;;;4.80;;
12218;SDS011;6172;42.646;23.344;2024-03-23T02:46:58;13.13;;;4.93;;
12218;SDS011;6172;42.646;23.344;2024-03-23T02:49:24;11.37;;;5.10;;
12218;SDS011;6172;42.646;23.344;2024-03-23T02:51:51;13.93;;;5.60;;
12218;SDS011;6172;42.646;23.344;2024-03-23T02:54:17;7.73;;;4.50;;
12218;SDS011;6172;42.646;23.344;2024-03-23T02:56:44;12.97;;;5.13;;
12218;SDS011;6172;42.646;23.344;2024-03-23T02:59:12;11.20;;;4.97;;
12218;SDS011;6172;42.646;23.344;2024-03-23T03:01:39;12.47;;;5.63;;
12218;SDS011;6172;42.646;23.344;2024-03-23T03:04:05;11.57;;;5.10;;
12218;SDS011;6172;42.646;23.344;2024-03-23T03:06:32;12.93;;;5.20;;
12218;SDS011;6172;42.646;23.344;2024-03-23T03:08:58;14.00;;;5.13;;
12218;SDS011;6172;42.646;23.344;2024-03-23T03:11:25;9.10;;;5.30;;
12218;SDS011;6172;42.646;23.344;2024-03-23T03:13:51;14.77;;;5.50;;
12218;SDS011;6172;42.646;23.344;2024-03-23T03:16:19;12.50;;;5.63;;
12218;SDS011;6172;42.646;23.344;2024-03-23T03:18:45;17.93;;;5.47;;
12218;SDS011;6172;42.646;23.344;2024-03-23T03:21:12;11.67;;;5.57;;
12218;SDS011;6172;42.646;23.344;2024-03-23T03:23:38;15.60;;;6.10;;
12218;SDS011;6172;42.646;23.344;2024-03-23T03:26:06;12.53;;;5.73;;
12218;SDS011;6172;42.646;23.344;2024-03-23T03:28:32;9.63;;;5.60;;
12218;SDS011;6172;42.646;23.344;2024-03-23T03:31:00;12.83;;;5.97;;
12218;SDS011;6172;42.646;23.344;2024-03-23T03:33:27;15.73;;;6.33;;
12218;SDS011;6172;42.646;23.344;2024-03-23T03:35:54;12.70;;;6.30;;
12218;SDS011;6172;42.646;23.344;2024-03-23T03:38:20;13.03;;;5.40;;
12218;SDS011;6172;42.646;23.344;2024-03-23T03:40:48;16.17;;;6.20;;
12218;SDS011;6172;42.646;23.344;2024-03-23T03:43:13;15.83;;;6.27;;
12218;SDS011;6172;42.646;23.344;2024-03-23T03:45:41;12.57;;;5.87;;
12218;SDS011;6172;42.646;23.344;2024-03-23T03:48:07;18.03;;;6.53;;
12218;SDS011;6172;42.646;23.344;2024-03-23T03:50:35;17.60;;;6.10;;
12218;SDS011;6172;42.646;23.344;2024-03-23T03:53:01;18.47;;;6.93;;
12218;SDS011;6172;42.646;23.344;2024-03-23T03:55:28;14.03;;;7.17;;
12218;SDS011;6172;42.646;23.344;2024-03-23T03:57:54;12.57;;;6.60;;
12218;SDS011;6172;42.646;23.344;2024-03-23T04:00:21;14.50;;;6.83;;
12218;SDS011;6172;42.646;23.344;2024-03-23T04:02:47;15.23;;;7.20;;
12218;SDS011;6172;42.646;23.344;2024-03-23T04:05:14;18.00;;;6.77;;
12218;SDS011;6172;42.646;23.344;2024-03-23T04:07:41;20.50;;;7.70;;
12218;SDS011;6172;42.646;23.344;2024-03-23T04:10:09;18.30;;;7.73;;
12218;SDS011;6172;42.646;23.344;2024-03-23T04:12:35;15.90;;;6.73;;
12218;SDS011;6172;42.646;23.344;2024-03-23T04:15:02;16.90;;;7.27;;
12218;SDS011;6172;42.646;23.344;2024-03-23T04:17:29;17.10;;;7.37;;
12218;SDS011;6172;42.646;23.344;2024-03-23T04:19:59;13.73;;;6.37;;
12218;SDS011;6172;42.646;23.344;2024-03-23T04:22:25;11.63;;;6.87;;
12218;SDS011;6172;42.646;23.344;2024-03-23T04:28:32;13.33;;;6.97;;
12218;SDS011;6172;42.646;23.344;2024-03-23T04:31:03;21.37;;;8.37;;
12218;SDS011;6172;42.646;23.344;2024-03-23T04:33:29;15.57;;;6.90;;
12218;SDS011;6172;42.646;23.344;2024-03-23T04:35:56;18.93;;;7.90;;
12218;SDS011;6172;42.646;23.344;2024-03-23T04:38:22;17.93;;;7.10;;
12218;SDS011;6172;42.646;23.344;2024-03-23T04:40:53;18.60;;;7.63;;
12218;SDS011;6172;42.646;23.344;2024-03-23T04:43:21;22.07;;;6.87;;
12218;SDS011;6172;42.646;23.344;2024-03-23T04:45:50;11.70;;;6.40;;
12218;SDS011;6172;42.646;23.344;2024-03-23T04:48:18;10.83;;;6.23;;
12218;SDS011;6172;42.646;23.344;2024-03-23T04:50:47;14.00;;;7.70;;
12218;SDS011;6172;42.646;23.344;2024-03-23T04:53:14;14.97;;;7.43;;
12218;SDS011;6172;42.646;23.344;2024-03-23T04:55:41;14.40;;;7.43;;
12218;SDS011;6172;42.646;23.344;2024-03-23T04:58:08;11.57;;;7.03;;
12218;SDS011;6172;42.646;23.344;2024-03-23T05:00:34;16.53;;;7.70;;
12218;SDS011;6172;42.646;23.344;2024-03-23T05:03:02;16.10;;;6.80;;
12218;SDS011;6172;42.646;23.344;2024-03-23T05:05:29;13.93;;;6.50;;
12218;SDS011;6172;42.646;23.344;2024-03-23T05:07:56;8.30;;;5.10;;
12218;SDS011;6172;42.646;23.344;2024-03-23T05:10:22;11.33;;;6.20;;
12218;SDS011;6172;42.646;23.344;2024-03-23T05:12:49;15.67;;;6.23;;
12218;SDS011;6172;42.646;23.344;2024-03-23T05:15:16;10.07;;;5.80;;
12218;SDS011;6172;42.646;23.344;2024-03-23T05:17:44;12.97;;;6.37;;
12218;SDS011;6172;42.646;23.344;2024-03-23T05:20:11;19.93;;;6.87;;
12218;SDS011;6172;42.646;23.344;2024-03-23T05:22:40;12.30;;;7.20;;
12218;SDS011;6172;42.646;23.344;2024-03-23T05:25:06;12.93;;;6.93;;
12218;SDS011;6172;42.646;23.344;2024-03-23T05:27:34;18.37;;;8.47;;
12218;SDS011;6172;42.646;23.344;2024-03-23T05:30:01;15.23;;;8.80;;
12218;SDS011;6172;42.646;23.344;2024-03-23T05:32:29;14.03;;;8.20;;
12218;SDS011;6172;42.646;23.344;2024-03-23T05:34:54;16.87;;;8.57;;
12218;SDS011;6172;42.646;23.344;2024-03-23T05:37:23;15.57;;;7.83;;
12218;SDS011;6172;42.646;23.344;2024-03-23T05:39:49;20.33;;;8.03;;
12218;SDS011;6172;42.646;23.344;2024-03-23T05:42:16;14.10;;;6.70;;
12218;SDS011;6172;42.646;23.344;2024-03-23T05:44:43;9.10;;;5.10;;
12218;SDS011;6172;42.646;23.344;2024-03-23T05:47:10;8.50;;;5.37;;
12218;SDS011;6172;42.646;23.344;2024-03-23T05:49:38;9.93;;;4.80;;
12218;SDS011;6172;42.646;23.344;2024-03-23T05:52:06;9.77;;;5.07;;
12218;SDS011;6172;42.646;23.344;2024-03-23T05:54:34;14.13;;;5.30;;
12218;SDS011;6172;42.646;23.344;2024-03-23T05:57:02;9.53;;;5.17;;
12218;SDS011;6172;42.646;23.344;2024-03-23T05:59:28;10.03;;;5.70;;
12218;SDS011;6172;42.646;23.344;2024-03-23T06:01:56;9.87;;;6.03;;
12218;SDS011;6172;42.646;23.344;2024-03-23T06:04:22;12.10;;;6.85;;
12218;SDS011;6172;42.646;23.344;2024-03-23T06:06:50;14.32;;;6.65;;
12218;SDS011;6172;42.646;23.344;2024-03-23T06:09:17;14.60;;;6.55;;
12218;SDS011;6172;42.646;23.344;2024-03-23T06:11:46;10.20;;;6.65;;
12218;SDS011;6172;42.646;23.344;2024-03-23T06:14:14;9.98;;;7.50;;
12218;SDS011;6172;42.646;23.344;2024-03-23T06:16:42;15.63;;;8.02;;
12218;SDS011;6172;42.646;23.344;2024-03-23T06:19:08;15.15;;;8.18;;
12218;SDS011;6172;42.646;23.344;2024-03-23T06:21:35;13.35;;;8.02;;
12218;SDS011;6172;42.646;23.344;2024-03-23T06:24:02;12.55;;;7.78;;
12218;SDS011;6172;42.646;23.344;2024-03-23T06:26:29;12.80;;;8.57;;
12218;SDS011;6172;42.646;23.344;2024-03-23T06:28:57;12.13;;;7.68;;
12218;SDS011;6172;42.646;23.344;2024-03-23T06:31:24;15.30;;;8.57;;
12218;SDS011;6172;42.646;23.344;2024-03-23T06:33:51;14.97;;;8.67;;
12218;SDS011;6172;42.646;23.344;2024-03-23T06:36:18;12.00;;;8.87;;
12218;SDS011;6172;42.646;23.344;2024-03-23T06:38:45;13.97;;;8.40;;
12218;SDS011;6172;42.646;23.344;2024-03-23T06:41:12;11.40;;;8.60;;
12218;SDS011;6172;42.646;23.344;2024-03-23T06:43:38;13.17;;;8.13;;
12218;SDS011;6172;42.646;23.344;2024-03-23T06:46:06;15.17;;;9.10;;
12218;SDS011;6172;42.646;23.344;2024-03-23T06:48:32;15.87;;;9.13;;
12218;SDS011;6172;42.646;23.344;2024-03-23T06:51:00;16.07;;;8.47;;
12218;SDS011;6172;42.646;23.344;2024-03-23T06:53:26;15.23;;;8.77;;
12218;SDS011;6172;42.646;23.344;2024-03-23T06:55:53;13.20;;;8.13;;
12218;SDS011;6172;42.646;23.344;2024-03-23T06:58:38;14.00;;;8.27;;
12218;SDS011;6172;42.646;23.344;2024-03-23T07:01:08;11.70;;;8.30;;
12218;SDS011;6172;42.646;23.344;2024-03-23T07:03:34;11.93;;;8.03;;
12218;SDS011;6172;42.646;23.344;2024-03-23T07:06:01;14.23;;;7.97;;
12218;SDS011;6172;42.646;23.344;2024-03-23T07:08:27;13.27;;;7.53;;
12218;SDS011;6172;42.646;23.344;2024-03-23T07:10:54;11.50;;;7.93;;
12218;SDS011;6172;42.646;23.344;2024-03-23T07:13:21;10.90;;;7.17;;
12218;SDS011;6172;42.646;23.344;2024-03-23T07:15:51;12.93;;;7.73;;
12218;SDS011;6172;42.646;23.344;2024-03-23T07:18:19;11.63;;;7.47;;
12218;SDS011;6172;42.646;23.344;2024-03-23T07:20:52;11.90;;;7.40;;
12218;SDS011;6172;42.646;23.344;2024-03-23T07:23:18;9.63;;;6.50;;
12218;SDS011;6172;42.646;23.344;2024-03-23T07:25:45;12.40;;;6.73;;
12218;SDS011;6172;42.646;23.344;2024-03-23T07:28:21;10.07;;;6.43;;
12218;SDS011;6172;42.646;23.344;2024-03-23T07:30:49;9.47;;;6.50;;
12218;SDS011;6172;42.646;23.344;2024-03-23T07:33:29;11.73;;;6.73;;
12218;SDS011;6172;42.646;23.344;2024-03-23T07:35:56;10.63;;;6.40;;
12218;SDS011;6172;42.646;23.344;2024-03-23T07:38:22;7.13;;;5.50;;
12218;SDS011;6172;42.646;23.344;2024-03-23T07:40:50;8.57;;;5.53;;
12218;SDS011;6172;42.646;23.344;2024-03-23T07:43:20;9.67;;;5.70;;
12218;SDS011;6172;42.646;23.344;2024-03-23T07:45:51;9.20;;;5.57;;
12218;SDS011;6172;42.646;23.344;2024-03-23T07:48:18;11.00;;;5.93;;
12218;SDS011;6172;42.646;23.344;2024-03-23T07:50:54;9.13;;;5.90;;
12218;SDS011;6172;42.646;23.344;2024-03-23T07:53:29;9.00;;;6.13;;
12218;SDS011;6172;42.646;23.344;2024-03-23T07:55:58;11.70;;;5.93;;
12218;SDS011;6172;42.646;23.344;2024-03-23T07:58:25;7.30;;;5.93;;
12218;SDS011;6172;42.646;23.344;2024-03-23T08:00:53;11.27;;;5.67;;
12218;SDS011;6172;42.646;23.344;2024-03-23T08:03:19;8.33;;;5.27;;
12218;SDS011;6172;42.646;23.344;2024-03-23T08:05:48;13.27;;;6.17;;
12218;SDS011;6172;42.646;23.344;2024-03-23T08:08:14;8.03;;;5.53;;
12218;SDS011;6172;42.646;23.344;2024-03-23T08:10:49;10.27;;;5.63;;
12218;SDS011;6172;42.646;23.344;2024-03-23T08:13:19;10.47;;;6.50;;
12218;SDS011;6172;42.646;23.344;2024-03-23T08:15:46;12.73;;;7.03;;
12218;SDS011;6172;42.646;23.344;2024-03-23T08:18:13;11.40;;;7.13;;
12218;SDS011;6172;42.646;23.344;2024-03-23T08:20:40;9.63;;;7.37;;
12218;SDS011;6172;42.646;23.344;2024-03-23T08:23:09;10.20;;;6.63;;
12218;SDS011;6172;42.646;23.344;2024-03-23T08:25:35;10.17;;;6.53;;
12218;SDS011;6172;42.646;23.344;2024-03-23T08:28:02;9.80;;;6.20;;
12218;SDS011;6172;42.646;23.344;2024-03-23T08:30:29;14.10;;;7.47;;
12218;SDS011;6172;42.646;23.344;2024-03-23T08:32:56;12.43;;;7.10;;
12218;SDS011;6172;42.646;23.344;2024-03-23T08:35:22;13.00;;;6.80;;
12218;SDS011;6172;42.646;23.344;2024-03-23T08:37:49;15.03;;;6.87;;
12218;SDS011;6172;42.646;23.344;2024-03-23T08:40:17;11.27;;;6.97;;
12218;SDS011;6172;42.646;23.344;2024-03-23T08:42:45;11.80;;;7.23;;
12218;SDS011;6172;42.646;23.344;2024-03-23T08:45:11;12.57;;;6.57;;
12218;SDS011;6172;42.646;23.344;2024-03-23T08:47:38;12.17;;;7.10;;
12218;SDS011;6172;42.646;23.344;2024-03-23T08:50:05;13.17;;;7.73;;
12218;SDS011;6172;42.646;23.344;2024-03-23T08:52:32;10.63;;;7.60;;
12218;SDS011;6172;42.646;23.344;2024-03-23T08:54:58;14.63;;;7.00;;
12218;SDS011;6172;42.646;23.344;2024-03-23T08:57:27;8.93;;;6.70;;
12218;SDS011;6172;42.646;23.344;2024-03-23T08:59:53;11.87;;;7.07;;
12218;SDS011;6172;42.646;23.344;2024-03-23T09:02:20;13.70;;;6.90;;
12218;SDS011;6172;42.646;23.344;2024-03-23T09:04:46;9.40;;;6.17;;
12218;SDS011;6172;42.646;23.344;2024-03-23T09:07:14;9.73;;;6.55;;
12218;SDS011;6172;42.646;23.344;2024-03-23T09:09:40;10.27;;;7.32;;
12218;SDS011;6172;42.646;23.344;2024-03-23T09:12:07;9.15;;;6.80;;
12218;SDS011;6172;42.646;23.344;2024-03-23T09:14:34;11.30;;;7.25;;
12218;SDS011;6172;42.646;23.344;2024-03-23T09:17:02;11.95;;;7.25;;
12218;SDS011;6172;42.646;23.344;2024-03-23T09:19:28;10.63;;;6.75;;
12218;SDS011;6172;42.646;23.344;2024-03-23T09:21:56;10.60;;;7.35;;
12218;SDS011;6172;42.646;23.344;2024-03-23T09:24:22;13.90;;;7.88;;
12218;SDS011;6172;42.646;23.344;2024-03-23T09:26:51;9.75;;;7.03;;
12218;SDS011;6172;42.646;23.344;2024-03-23T09:29:17;10.85;;;7.70;;
12218;SDS011;6172;42.646;23.344;2024-03-23T09:31:46;13.07;;;7.47;;
12218;SDS011;6172;42.646;23.344;2024-03-23T09:34:12;12.15;;;7.35;;
12218;SDS011;6172;42.646;23.344;2024-03-23T09:36:39;11.80;;;7.13;;
12218;SDS011;6172;42.646;23.344;2024-03-23T09:39:06;11.85;;;6.72;;
12218;SDS011;6172;42.646;23.344;2024-03-23T09:41:34;10.20;;;7.47;;
12218;SDS011;6172;42.646;23.344;2024-03-23T09:44:08;8.65;;;6.35;;
12218;SDS011;6172;42.646;23.344;2024-03-23T09:46:45;7.43;;;6.20;;
12218;SDS011;6172;42.646;23.344;2024-03-23T09:49:12;10.23;;;6.20;;
12218;SDS011;6172;42.646;23.344;2024-03-23T09:51:39;12.55;;;7.47;;
12218;SDS011;6172;42.646;23.344;2024-03-23T09:54:05;10.65;;;6.82;;
12218;SDS011;6172;42.646;23.344;2024-03-23T09:56:43;13.05;;;7.90;;
12218;SDS011;6172;42.646;23.344;2024-03-23T09:59:09;11.90;;;7.00;;
12218;SDS011;6172;42.646;23.344;2024-03-23T10:01:36;11.30;;;6.30;;
12218;SDS011;6172;42.646;23.344;2024-03-23T10:04:13;13.43;;;6.60;;
12218;SDS011;6172;42.646;23.344;2024-03-23T10:07:10;9.23;;;6.22;;
12218;SDS011;6172;42.646;23.344;2024-03-23T10:09:37;9.35;;;6.43;;
12218;SDS011;6172;42.646;23.344;2024-03-23T10:12:09;11.77;;;7.30;;
12218;SDS011;6172;42.646;23.344;2024-03-23T10:14:35;11.38;;;6.57;;
12218;SDS011;6172;42.646;23.344;2024-03-23T10:17:13;10.70;;;6.07;;
12218;SDS011;6172;42.646;23.344;2024-03-23T10:19:44;10.13;;;6.22;;
12218;SDS011;6172;42.646;23.344;2024-03-23T10:22:13;7.43;;;5.55;;
12218;SDS011;6172;42.646;23.344;2024-03-23T10:24:40;10.82;;;6.70;;
12218;SDS011;6172;42.646;23.344;2024-03-23T10:27:08;9.48;;;6.45;;
12218;SDS011;6172;42.646;23.344;2024-03-23T10:29:34;11.65;;;6.32;;
12218;SDS011;6172;42.646;23.344;2024-03-23T10:32:07;9.63;;;5.60;;
12218;SDS011;6172;42.646;23.344;2024-03-23T10:34:35;11.48;;;6.07;;
12218;SDS011;6172;42.646;23.344;2024-03-23T10:37:08;8.13;;;5.70;;
12218;SDS011;6172;42.646;23.344;2024-03-23T10:39:36;13.45;;;6.43;;
12218;SDS011;6172;42.646;23.344;2024-03-23T10:42:04;14.52;;;6.63;;
12218;SDS011;6172;42.646;23.344;2024-03-23T10:44:30;11.05;;;6.30;;
12218;SDS011;6172;42.646;23.344;2024-03-23T10:46:58;11.52;;;6.35;;
12218;SDS011;6172;42.646;23.344;2024-03-23T10:49:25;10.00;;;6.30;;
12218;SDS011;6172;42.646;23.344;2024-03-23T10:51:55;7.15;;;5.95;;
12218;SDS011;6172;42.646;23.344;2024-03-23T10:54:23;6.90;;;6.13;;
12218;SDS011;6172;42.646;23.344;2024-03-23T10:56:52;9.27;;;5.68;;
12218;SDS011;6172;42.646;23.344;2024-03-23T10:59:22;10.88;;;6.30;;
12218;SDS011;6172;42.646;23.344;2024-03-23T11:01:56;11.07;;;7.03;;
12218;SDS011;6172;42.646;23.344;2024-03-23T11:04:31;8.38;;;6.43;;
12218;SDS011;6172;42.646;23.344;2024-03-23T11:06:59;6.15;;;5.55;;
12218;SDS011;6172;42.646;23.344;2024-03-23T11:09:39;8.77;;;5.32;;
12218;SDS011;6172;42.646;23.344;2024-03-23T11:15:11;12.10;;;6.13;;
12218;SDS011;6172;42.646;23.344;2024-03-23T11:17:37;9.23;;;5.70;;
12218;SDS011;6172;42.646;23.344;2024-03-23T11:20:05;10.38;;;5.47;;
12218;SDS011;6172;42.646;23.344;2024-03-23T11:22:37;7.15;;;4.90;;
12218;SDS011;6172;42.646;23.344;2024-03-23T11:25:16;8.35;;;5.75;;
12218;SDS011;6172;42.646;23.344;2024-03-23T11:27:43;51.63;;;7.50;;
12218;SDS011;6172;42.646;23.344;2024-03-23T11:30:12;8.52;;;5.55;;
12218;SDS011;6172;42.646;23.344;2024-03-23T11:32:39;9.77;;;6.00;;
12218;SDS011;6172;42.646;23.344;2024-03-23T11:35:07;9.18;;;5.32;;
12218;SDS011;6172;42.646;23.344;2024-03-23T11:37:35;9.32;;;5.07;;
12218;SDS011;6172;42.646;23.344;2024-03-23T11:40:18;9.05;;;5.68;;
12218;SDS011;6172;42.646;23.344;2024-03-23T11:42:44;7.70;;;5.32;;
12218;SDS011;6172;42.646;23.344;2024-03-23T11:45:12;14.07;;;5.80;;
12218;SDS011;6172;42.646;23.344;2024-03-23T11:47:39;8.13;;;5.25;;
12218;SDS011;6172;42.646;23.344;2024-03-23T11:50:06;14.95;;;5.80;;
12218;SDS011;6172;42.646;23.344;2024-03-23T11:52:33;9.35;;;5.63;;
12218;SDS011;6172;42.646;23.344;2024-03-23T11:55:04;6.38;;;4.75;;
12218;SDS011;6172;42.646;23.344;2024-03-23T11:57:37;12.15;;;5.78;;
12218;SDS011;6172;42.646;23.344;2024-03-23T12:00:19;8.60;;;5.40;;
12218;SDS011;6172;42.646;23.344;2024-03-23T12:02:46;9.32;;;5.40;;
12218;SDS011;6172;42.646;23.344;2024-03-23T12:05:16;9.07;;;5.45;;
12218;SDS011;6172;42.646;23.344;2024-03-23T12:07:42;9.40;;;5.03;;
12218;SDS011;6172;42.646;23.344;2024-03-23T12:10:10;10.15;;;5.75;;
12218;SDS011;6172;42.646;23.344;2024-03-23T12:12:41;12.68;;;5.53;;
12218;SDS011;6172;42.646;23.344;2024-03-23T12:15:09;10.45;;;5.57;;
12218;SDS011;6172;42.646;23.344;2024-03-23T12:17:38;8.65;;;4.93;;
12218;SDS011;6172;42.646;23.344;2024-03-23T12:20:05;9.73;;;5.05;;
12218;SDS011;6172;42.646;23.344;2024-03-23T12:22:32;6.65;;;4.70;;
12218;SDS011;6172;42.646;23.344;2024-03-23T12:25:00;6.43;;;4.65;;
12218;SDS011;6172;42.646;23.344;2024-03-23T12:27:26;8.52;;;4.75;;
12218;SDS011;6172;42.646;23.344;2024-03-23T12:29:55;7.18;;;4.78;;
12218;SDS011;6172;42.646;23.344;2024-03-23T12:32:21;11.02;;;5.57;;
12218;SDS011;6172;42.646;23.344;2024-03-23T12:34:49;8.63;;;4.78;;
12218;SDS011;6172;42.646;23.344;2024-03-23T12:37:15;7.00;;;4.90;;
12218;SDS011;6172;42.646;23.344;2024-03-23T12:39:43;11.52;;;5.05;;
12218;SDS011;6172;42.646;23.344;2024-03-23T12:42:09;6.60;;;4.53;;
12218;SDS011;6172;42.646;23.344;2024-03-23T12:44:40;6.13;;;4.47;;
12218;SDS011;6172;42.646;23.344;2024-03-23T12:47:08;6.90;;;4.60;;
12218;SDS011;6172;42.646;23.344;2024-03-23T12:49:36;7.03;;;4.15;;
12218;SDS011;6172;42.646;23.344;2024-03-23T12:52:02;4.57;;;2.80;;
12218;SDS011;6172;42.646;23.344;2024-03-23T12:54:30;4.07;;;2.65;;
12218;SDS011;6172;42.646;23.344;2024-03-23T12:56:57;7.57;;;2.47;;
12218;SDS011;6172;42.646;23.344;2024-03-23T12:59:23;4.75;;;2.83;;
12218;SDS011;6172;42.646;23.344;2024-03-23T13:01:51;3.15;;;2.20;;
12218;SDS011;6172;42.646;23.344;2024-03-23T13:04:19;2.35;;;1.95;;
12218;SDS011;6172;42.646;23.344;2024-03-23T13:06:47;5.70;;;1.92;;
12218;SDS011;6172;42.646;23.344;2024-03-23T13:09:13;1.50;;;1.27;;
12218;SDS011;6172;42.646;23.344;2024-03-23T13:11:40;3.85;;;1.92;;
12218;SDS011;6172;42.646;23.344;2024-03-23T13:14:06;2.53;;;2.28;;
12218;SDS011;6172;42.646;23.344;2024-03-23T13:16:35;5.88;;;1.85;;
12218;SDS011;6172;42.646;23.344;2024-03-23T13:19:01;4.05;;;1.98;;
12218;SDS011;6172;42.646;23.344;2024-03-23T13:21:31;3.92;;;2.10;;
12218;SDS011;6172;42.646;23.344;2024-03-23T13:24:00;2.85;;;2.08;;
12218;SDS011;6172;42.646;23.344;2024-03-23T13:26:31;3.17;;;1.98;;
12218;SDS011;6172;42.646;23.344;2024-03-23T13:28:57;3.47;;;1.60;;
12218;SDS011;6172;42.646;23.344;2024-03-23T13:31:24;3.92;;;1.98;;
12218;SDS011;6172;42.646;23.344;2024-03-23T13:33:50;5.00;;;1.85;;
12218;SDS011;6172;42.646;23.344;2024-03-23T13:36:18;2.97;;;1.50;;
12218;SDS011;6172;42.646;23.344;2024-03-23T13:38:47;2.83;;;1.48;;
12218;SDS011;6172;42.646;23.344;2024-03-23T13:41:13;1.67;;;1.58;;
12218;SDS011;6172;42.646;23.344;2024-03-23T13:43:40;6.53;;;1.75;;
12218;SDS011;6172;42.646;23.344;2024-03-23T13:46:06;1.25;;;1.10;;
12218;SDS011;6172;42.646;23.344;2024-03-23T13:48:36;1.27;;;1.10;;
12218;SDS011;6172;42.646;23.344;2024-03-23T13:51:02;1.50;;;0.77;;
12218;SDS011;6172;42.646;23.344;2024-03-23T13:53:30;0.65;;;0.65;;
12218;SDS011;6172;42.646;23.344;2024-03-23T13:55:59;0.50;;;0.45;;
12218;SDS011;6172;42.646;23.344;2024-03-23T13:58:28;0.77;;;0.70;;
12218;SDS011;6172;42.646;23.344;2024-03-23T14:00:56;1.75;;;0.90;;
12218;SDS011;6172;42.646;23.344;2024-03-23T14:03:23;2.78;;;0.63;;
12218;SDS011;6172;42.646;23.344;2024-03-23T14:05:49;1.73;;;0.55;;
12218;SDS011;6172;42.646;23.344;2024-03-23T14:08:17;2.47;;;0.52;;
12218;SDS011;6172;42.646;23.344;2024-03-23T14:10:44;1.88;;;0.65;;
12218;SDS011;6172;42.646;23.344;2024-03-23T14:13:13;0.98;;;0.40;;
12218;SDS011;6172;42.646;23.344;2024-03-23T14:15:39;0.90;;;0.85;;
12218;SDS011;6172;42.646;23.344;2024-03-23T14:18:07;1.15;;;0.38;;
12218;SDS011;6172;42.646;23.344;2024-03-23T14:20:33;0.82;;;0.50;;
12218;SDS011;6172;42.646;23.344;2024-03-23T14:23:01;2.58;;;0.50;;
12218;SDS011;6172;42.646;23.344;2024-03-23T14:25:26;4.53;;;0.70;;
12218;SDS011;6172;42.646;23.344;2024-03-23T14:27:55;2.30;;;0.77;;
12218;SDS011;6172;42.646;23.344;2024-03-23T14:30:45;2.03;;;0.60;;
12218;SDS011;6172;42.646;23.344;2024-03-23T14:33:14;2.33;;;0.63;;
12218;SDS011;6172;42.646;23.344;2024-03-23T14:35:40;0.60;;;0.50;;
12218;SDS011;6172;42.646;23.344;2024-03-23T14:38:08;0.50;;;0.50;;
12218;SDS011;6172;42.646;23.344;2024-03-23T14:40:35;2.00;;;0.45;;
12218;SDS011;6172;42.646;23.344;2024-03-23T14:43:02;2.60;;;0.60;;
12218;SDS011;6172;42.646;23.344;2024-03-23T14:45:28;0.55;;;0.45;;
12218;SDS011;6172;42.646;23.344;2024-03-23T14:47:56;1.73;;;0.55;;
12218;SDS011;6172;42.646;23.344;2024-03-23T14:50:24;0.93;;;0.63;;
12218;SDS011;6172;42.646;23.344;2024-03-23T14:52:51;2.22;;;0.75;;
12218;SDS011;6172;42.646;23.344;2024-03-23T14:55:17;3.53;;;0.70;;
12218;SDS011;6172;42.646;23.344;2024-03-23T14:57:44;1.25;;;0.68;;
12218;SDS011;6172;42.646;23.344;2024-03-23T15:00:10;1.85;;;0.50;;
12218;SDS011;6172;42.646;23.344;2024-03-23T15:02:38;1.60;;;0.40;;
12218;SDS011;6172;42.646;23.344;2024-03-23T15:05:06;0.60;;;0.45;;
12218;SDS011;6172;42.646;23.344;2024-03-23T15:07:35;3.53;;;0.60;;
12218;SDS011;6172;42.646;23.344;2024-03-23T15:10:03;3.78;;;0.95;;
12218;SDS011;6172;42.646;23.344;2024-03-23T15:12:32;1.58;;;0.63;;
12218;SDS011;6172;42.646;23.344;2024-03-23T15:14:58;0.30;;;0.20;;
12218;SDS011;6172;42.646;23.344;2024-03-23T15:17:25;4.95;;;0.63;;
12218;SDS011;6172;42.646;23.344;2024-03-23T15:19:51;2.47;;;0.77;;
12218;SDS011;6172;42.646;23.344;2024-03-23T15:22:20;4.32;;;0.60;;
12218;SDS011;6172;42.646;23.344;2024-03-23T15:24:49;4.15;;;0.90;;
12218;SDS011;6172;42.646;23.344;2024-03-23T15:27:16;1.67;;;0.40;;
12218;SDS011;6172;42.646;23.344;2024-03-23T15:29:42;4.95;;;0.70;;
12218;SDS011;6172;42.646;23.344;2024-03-23T15:32:11;5.00;;;0.85;;
12218;SDS011;6172;42.646;23.344;2024-03-23T15:34:39;1.80;;;0.57;;
12218;SDS011;6172;42.646;23.344;2024-03-23T15:37:06;0.40;;;0.30;;
12218;SDS011;6172;42.646;23.344;2024-03-23T15:39:36;2.15;;;0.85;;
12218;SDS011;6172;42.646;23.344;2024-03-23T15:42:03;5.60;;;0.82;;
12218;SDS011;6172;42.646;23.344;2024-03-23T15:44:30;3.92;;;0.80;;
12218;SDS011;6172;42.646;23.344;2024-03-23T15:46:58;2.05;;;0.70;;